createdAt,value
2023-03-22T00:01:21.986Z,13.73
2023-03-22T00:03:50.729Z,16.48
2023-03-22T00:06:18.064Z,13.88
2023-03-22T00:08:45.895Z,17.40
2023-03-22T00:11:13.193Z,18.17
2023-03-22T00:13:43.065Z,20.92
2023-03-22T00:16:11.215Z,13.60
2023-03-22T00:18:39.830Z,19.70
2023-03-22T00:21:16.072Z,18.00
2023-03-22T00:23:43.622Z,14.27
2023-03-22T00:26:12.479Z,12.93
2023-03-22T00:28:39.816Z,13.07
2023-03-22T00:31:07.162Z,15.05
2023-03-22T00:33:34.237Z,14.75
2023-03-22T00:36:07.333Z,12.38
2023-03-22T00:38:42.432Z,14.13
2023-03-22T00:41:16.456Z,15.05
2023-03-22T00:43:46.148Z,17.27
2023-03-22T00:46:14.592Z,19.85
2023-03-22T00:48:41.785Z,14.82
2023-03-22T00:51:10.127Z,20.25
2023-03-22T00:53:41.846Z,13.13
2023-03-22T00:56:14.335Z,23.35
2023-03-22T00:59:17.052Z,20.13
2023-03-22T01:01:44.285Z,18.88
2023-03-22T01:04:18.105Z,11.52
2023-03-22T01:06:47.392Z,14.15
2023-03-22T01:09:15.399Z,14.05
2023-03-22T01:11:43.890Z,15.77
2023-03-22T01:14:14.046Z,12.13
2023-03-22T01:16:41.235Z,10.80
2023-03-22T01:19:08.814Z,17.80
2023-03-22T01:21:36.565Z,12.80
2023-03-22T01:24:03.754Z,16.30
2023-03-22T01:26:31.363Z,18.35
2023-03-22T01:28:58.511Z,13.05
2023-03-22T01:31:25.799Z,21.65
2023-03-22T01:33:52.747Z,15.85
2023-03-22T01:36:22.193Z,15.98
2023-03-22T01:38:49.142Z,16.85
2023-03-22T01:41:17.476Z,28.15
2023-03-22T01:43:45.478Z,20.05
2023-03-22T01:46:13.197Z,16.20
2023-03-22T01:48:46.311Z,13.55
2023-03-22T01:51:27.799Z,13.55
2023-03-22T01:54:10.897Z,17.60
2023-03-22T01:56:42.678Z,16.20
2023-03-22T01:59:16.264Z,19.65
2023-03-22T02:02:03.753Z,17.20
2023-03-22T02:04:36.880Z,15.27
2023-03-22T02:07:10.236Z,14.23
2023-03-22T02:09:42.449Z,18.38
2023-03-22T02:12:34.380Z,16.40
2023-03-22T02:15:17.043Z,15.32
2023-03-22T02:19:01.378Z,18.85
2023-03-22T02:22:26.066Z,18.88
2023-03-22T02:25:20.816Z,22.67
2023-03-22T02:28:15.857Z,14.60
2023-03-22T02:30:42.716Z,16.65
2023-03-22T02:33:32.021Z,18.17
2023-03-22T02:36:19.162Z,12.88
2023-03-22T02:39:12.169Z,17.27
2023-03-22T02:42:25.747Z,14.60
2023-03-22T02:45:06.468Z,18.27
2023-03-22T02:47:58.855Z,21.55
2023-03-22T02:50:50.637Z,10.77
2023-03-22T02:53:26.468Z,20.50
2023-03-22T02:56:05.923Z,19.27
2023-03-22T02:58:45.747Z,17.60
2023-03-22T03:01:23.808Z,13.15
2023-03-22T03:03:55.416Z,13.00
2023-03-22T03:06:25.920Z,17.67
2023-03-22T03:08:54.701Z,19.63
2023-03-22T03:11:21.685Z,16.60
2023-03-22T03:13:51.218Z,15.27
2023-03-22T03:16:21.877Z,17.88
2023-03-22T03:19:00.839Z,16.95
2023-03-22T03:21:51.970Z,19.67
2023-03-22T03:24:34.871Z,18.88
2023-03-22T03:27:10.069Z,18.95
2023-03-22T03:30:16.911Z,17.75
2023-03-22T03:32:59.395Z,21.35
2023-03-22T03:35:32.638Z,20.57
2023-03-22T03:38:08.868Z,19.05
2023-03-22T03:40:44.385Z,23.73
2023-03-22T03:43:12.501Z,27.73
2023-03-22T03:45:40.574Z,23.58
2023-03-22T03:48:23.860Z,21.20
2023-03-22T03:50:53.572Z,22.05
2023-03-22T03:53:20.766Z,22.13
2023-03-22T03:55:47.715Z,21.88
2023-03-22T03:58:18.100Z,17.60
2023-03-22T04:00:47.932Z,29.75
2023-03-22T04:03:21.000Z,26.88
2023-03-22T04:06:14.036Z,23.92
2023-03-22T04:08:45.997Z,25.45
2023-03-22T04:11:15.854Z,26.17
2023-03-22T04:13:44.674Z,29.90
2023-03-22T04:16:16.555Z,26.27
2023-03-22T04:18:43.567Z,28.27
2023-03-22T04:21:12.278Z,23.75
2023-03-22T04:24:00.300Z,22.10
2023-03-22T04:26:30.038Z,27.02
2023-03-22T04:29:15.327Z,27.95
2023-03-22T04:31:47.178Z,29.00
2023-03-22T04:34:19.744Z,27.23
2023-03-22T04:37:02.649Z,25.60
2023-03-22T04:39:34.851Z,28.65
2023-03-22T04:42:25.668Z,29.95
2023-03-22T04:45:04.265Z,22.98
2023-03-22T04:47:32.212Z,29.35
2023-03-22T04:50:00.308Z,27.27
2023-03-22T04:52:30.584Z,25.70
2023-03-22T04:54:57.566Z,28.20
2023-03-22T04:57:24.880Z,30.30
2023-03-22T04:59:52.485Z,26.73
2023-03-22T05:02:19.823Z,26.85
2023-03-22T05:04:48.354Z,25.73
2023-03-22T05:07:28.715Z,30.52
2023-03-22T05:09:58.640Z,28.45
2023-03-22T05:12:25.862Z,25.83
2023-03-22T05:15:06.854Z,26.00
2023-03-22T05:17:37.698Z,29.20
2023-03-22T05:20:10.392Z,36.67
2023-03-22T05:25:11.362Z,28.60
2023-03-22T05:27:43.641Z,32.35
2023-03-22T05:30:34.113Z,24.20
2023-03-22T05:33:08.155Z,25.45
2023-03-22T05:35:41.939Z,32.33
2023-03-22T05:38:10.810Z,28.90
2023-03-22T05:40:42.127Z,27.27
2023-03-22T05:43:09.072Z,30.90
2023-03-22T05:45:37.554Z,36.53
2023-03-22T05:48:12.740Z,30.98
2023-03-22T05:50:40.995Z,31.98
2023-03-22T05:53:08.730Z,28.05
2023-03-22T05:55:50.237Z,23.27
2023-03-22T05:58:19.298Z,29.63
2023-03-22T06:00:51.566Z,28.95
2023-03-22T06:03:18.573Z,38.40
2023-03-22T06:05:54.950Z,28.70
2023-03-22T06:08:35.644Z,31.52
2023-03-22T06:11:02.905Z,28.67
2023-03-22T06:13:30.108Z,22.45
2023-03-22T06:16:01.502Z,23.33
2023-03-22T06:18:29.694Z,24.25
2023-03-22T06:21:03.148Z,22.55
2023-03-22T06:23:30.325Z,21.55
2023-03-22T06:25:57.270Z,24.88
2023-03-22T06:28:26.668Z,26.20
2023-03-22T06:30:54.885Z,22.77
2023-03-22T06:33:31.612Z,23.90
2023-03-22T06:36:09.361Z,23.50
2023-03-22T06:38:46.379Z,25.02
2023-03-22T06:41:13.493Z,23.02
2023-03-22T06:43:40.471Z,24.60
2023-03-22T06:46:22.091Z,26.33
2023-03-22T06:48:58.214Z,22.10
2023-03-22T06:51:25.488Z,28.27
2023-03-22T06:53:53.326Z,25.30
2023-03-22T06:56:20.689Z,24.20
2023-03-22T06:58:52.074Z,27.92
2023-03-22T07:01:19.626Z,20.80
2023-03-22T07:03:46.800Z,20.17
2023-03-22T07:06:16.097Z,20.00
2023-03-22T07:08:46.832Z,18.83
2023-03-22T07:11:17.962Z,19.42
2023-03-22T07:13:55.829Z,17.40
2023-03-22T07:16:23.157Z,19.23
2023-03-22T07:18:53.399Z,21.80
2023-03-22T07:21:20.314Z,16.58
2023-03-22T07:23:52.077Z,18.73
2023-03-22T07:26:21.686Z,22.25
2023-03-22T07:28:50.030Z,20.27
2023-03-22T07:31:18.388Z,22.10
2023-03-22T07:34:00.995Z,22.52
2023-03-22T07:36:31.139Z,21.08
2023-03-22T07:38:58.332Z,29.08
2023-03-22T07:41:30.763Z,18.92
2023-03-22T07:44:30.145Z,20.08
2023-03-22T07:47:15.721Z,27.30
2023-03-22T07:49:56.756Z,19.60
2023-03-22T07:52:27.163Z,21.42
2023-03-22T07:54:54.228Z,15.90
2023-03-22T07:57:21.099Z,15.98
2023-03-22T07:59:54.518Z,21.33
2023-03-22T08:02:23.827Z,24.38
2023-03-22T08:04:56.494Z,17.52
2023-03-22T08:07:51.542Z,20.30
2023-03-22T08:10:18.593Z,18.38
2023-03-22T08:12:45.575Z,22.83
2023-03-22T08:15:20.796Z,15.15
2023-03-22T08:17:49.945Z,22.23
2023-03-22T08:20:28.744Z,18.35
2023-03-22T08:23:01.153Z,20.75
2023-03-22T08:26:03.330Z,15.10
2023-03-22T08:28:32.286Z,17.92
2023-03-22T08:30:59.465Z,14.75
2023-03-22T08:33:26.578Z,13.60
2023-03-22T08:36:04.814Z,26.95
2023-03-22T08:38:32.478Z,17.77
2023-03-22T08:40:59.482Z,12.88
2023-03-22T08:43:26.490Z,18.80
2023-03-22T08:45:53.953Z,11.00
2023-03-22T08:48:21.263Z,12.60
2023-03-22T08:51:03.131Z,9.65
2023-03-22T08:53:40.510Z,15.48
2023-03-22T08:56:27.450Z,14.60
2023-03-22T08:59:09.935Z,20.67
2023-03-22T09:01:51.988Z,16.48
2023-03-22T09:04:19.425Z,9.07
2023-03-22T09:06:47.115Z,12.32
2023-03-22T09:09:15.245Z,13.45
2023-03-22T09:11:44.906Z,30.42
2023-03-22T09:14:11.956Z,17.48
2023-03-22T09:16:39.067Z,9.88
2023-03-22T09:19:06.833Z,8.90
2023-03-22T09:21:34.579Z,10.52
2023-03-22T09:24:14.219Z,14.60
2023-03-22T09:26:47.521Z,11.40
2023-03-22T09:29:17.629Z,12.18
2023-03-22T09:31:48.896Z,12.40
2023-03-22T09:34:22.886Z,7.72
2023-03-22T09:36:49.920Z,14.57
2023-03-22T09:39:20.243Z,10.85
2023-03-22T09:41:58.275Z,21.77
2023-03-22T09:44:40.357Z,13.30
2023-03-22T09:47:33.190Z,16.42
2023-03-22T09:50:16.043Z,17.50
2023-03-22T09:55:37.479Z,24.38
2023-03-22T09:58:21.353Z,15.27
2023-03-22T10:00:58.473Z,20.02
2023-03-22T10:03:53.131Z,16.88
2023-03-22T10:06:25.578Z,22.33
2023-03-22T10:09:16.885Z,25.90
2023-03-22T10:11:52.541Z,24.08
2023-03-22T10:14:41.485Z,15.95
2023-03-22T10:17:18.677Z,22.85
2023-03-22T10:20:08.779Z,27.55
2023-03-22T10:22:41.034Z,24.48
2023-03-22T10:25:09.651Z,28.23
2023-03-22T10:27:37.660Z,22.52
2023-03-22T10:30:19.897Z,15.73
2023-03-22T10:32:58.163Z,16.33
2023-03-22T10:35:26.245Z,14.93
2023-03-22T10:37:56.565Z,13.93
2023-03-22T10:40:29.886Z,19.65
2023-03-22T10:43:01.933Z,16.90
2023-03-22T10:45:32.096Z,18.58
2023-03-22T10:48:11.905Z,30.77
2023-03-22T10:50:42.323Z,18.35
2023-03-22T10:53:23.201Z,17.88
2023-03-22T10:55:50.443Z,12.10
2023-03-22T10:58:19.971Z,11.48
2023-03-22T11:00:52.304Z,13.52
2023-03-22T11:03:51.607Z,17.17
2023-03-22T11:06:25.996Z,20.55
2023-03-22T11:08:57.356Z,13.10
2023-03-22T11:11:27.193Z,14.85
2023-03-22T11:14:06.462Z,23.02
2023-03-22T11:16:44.425Z,15.43
2023-03-22T11:19:18.470Z,15.35
2023-03-22T11:21:45.829Z,22.63
2023-03-22T11:24:15.766Z,20.98
2023-03-22T11:26:45.037Z,15.80
2023-03-22T11:29:18.659Z,14.43
2023-03-22T11:31:59.229Z,17.83
2023-03-22T11:34:29.368Z,17.65
2023-03-22T11:37:00.452Z,20.20
2023-03-22T11:39:29.834Z,19.52
2023-03-22T11:42:00.266Z,16.45
2023-03-22T11:44:32.025Z,15.68
2023-03-22T11:47:01.223Z,20.00
2023-03-22T11:49:59.996Z,14.68
2023-03-22T11:52:28.065Z,17.20
2023-03-22T11:54:56.340Z,15.45
2023-03-22T11:57:26.606Z,19.67
2023-03-22T12:00:21.551Z,16.65
2023-03-22T12:05:27.365Z,17.02
2023-03-22T12:08:38.936Z,14.48
2023-03-22T12:11:11.178Z,15.57
2023-03-22T12:13:53.477Z,14.60
2023-03-22T12:16:28.479Z,18.55
2023-03-22T12:19:22.696Z,12.85
2023-03-22T12:21:51.675Z,12.10
2023-03-22T12:24:36.756Z,16.30
2023-03-22T12:27:27.374Z,9.43
2023-03-22T12:30:04.331Z,14.38
2023-03-22T12:32:38.814Z,19.85
2023-03-22T12:37:50.873Z,12.88
2023-03-22T12:40:26.250Z,10.93
2023-03-22T12:43:08.261Z,17.50
2023-03-22T12:45:42.756Z,12.35
2023-03-22T12:48:21.940Z,7.95
2023-03-22T12:50:56.096Z,14.63
2023-03-22T12:53:28.206Z,9.13
2023-03-22T12:55:56.319Z,14.00
2023-03-22T12:58:26.284Z,15.77
2023-03-22T13:00:58.745Z,16.98
2023-03-22T13:03:38.713Z,15.35
2023-03-22T13:06:27.373Z,11.25
2023-03-22T13:09:17.111Z,9.27
2023-03-22T13:11:49.831Z,9.70
2023-03-22T13:14:51.454Z,10.70
2023-03-22T13:17:24.890Z,7.60
2023-03-22T13:20:23.807Z,13.20
2023-03-22T13:22:53.210Z,6.30
2023-03-22T13:25:40.015Z,12.65
2023-03-22T13:28:28.300Z,8.70
2023-03-22T13:30:58.422Z,9.32
2023-03-22T13:33:29.880Z,11.70
2023-03-22T13:36:01.533Z,10.20
2023-03-22T13:38:42.853Z,10.25
2023-03-22T13:41:24.653Z,7.25
2023-03-22T13:43:54.815Z,7.07
2023-03-22T13:46:21.816Z,10.15
2023-03-22T13:48:49.317Z,10.02
2023-03-22T13:51:23.037Z,12.75
2023-03-22T13:54:16.597Z,10.00
2023-03-22T13:57:01.564Z,7.68
2023-03-22T14:02:00.696Z,10.50
2023-03-22T14:04:42.729Z,13.30
2023-03-22T14:07:40.717Z,21.42
2023-03-22T14:10:33.089Z,7.60
2023-03-22T14:13:06.488Z,27.88
2023-03-22T14:15:40.634Z,14.02
2023-03-22T14:18:31.821Z,14.20
2023-03-22T14:21:02.195Z,13.57
